Time;durP1;ratioP1;P1;durP2;ratioP2;P2;SDS_P1;SDS_P2;PMS_P1;PMS_P2;Temp;Humidity;BMP_temperature;BMP_pressure;BME280_temperature;BME280_humidity;BME280_pressure;Samples;Min_cycle;Max_cycle;Signal;HPM_P1;HPM_P2
2023/04/20 00:02:15;;;;;;;8.85;5.03;;;6.30;99.90;;;;;;5093798;28;20204;-66
2023/04/20 00:04:43;;;;;;;8.05;4.20;;;6.20;99.90;;;;;;5093240;28;20220;-66
2023/04/20 00:07:10;;;;;;;8.20;5.00;;;6.20;99.90;;;;;;5093428;28;20202;-67
2023/04/20 00:09:37;;;;;;;6.60;3.95;;;6.20;99.90;;;;;;5093494;28;20290;-66
2023/04/20 00:12:04;;;;;;;9.25;4.80;;;6.10;99.90;;;;;;5093548;28;20207;-66
2023/04/20 00:14:31;;;;;;;6.20;4.30;;;6.10;99.90;;;;;;5093184;28;20251;-66
2023/04/20 00:16:57;;;;;;;7.05;4.57;;;6.10;99.90;;;;;;5093251;28;20604;-66
2023/04/20 00:19:25;;;;;;;6.45;4.50;;;6.00;99.90;;;;;;5093149;28;20299;-67
2023/04/20 00:21:53;;;;;;;5.43;4.40;;;6.00;99.90;;;;;;5093544;28;20205;-66
2023/04/20 00:24:20;;;;;;;6.82;4.22;;;6.00;99.90;;;;;;5093185;28;20227;-66
2023/04/20 00:26:47;;;;;;;4.78;3.78;;;6.00;99.90;;;;;;5094531;28;20206;-66
2023/04/20 00:29:14;;;;;;;5.97;4.03;;;6.00;99.90;;;;;;5097356;28;20212;-66
2023/04/20 00:31:42;;;;;;;7.70;4.88;;;5.90;99.90;;;;;;5097669;28;20250;-66
2023/04/20 00:34:08;;;;;;;7.80;4.35;;;5.90;99.90;;;;;;5097246;28;20231;-66
2023/04/20 00:36:35;;;;;;;6.88;4.25;;;5.90;99.90;;;;;;5097729;28;20209;-67
2023/04/20 00:39:04;;;;;;;7.25;5.05;;;5.90;99.90;;;;;;5097110;28;20242;-66
2023/04/20 00:41:31;;;;;;;6.75;4.55;;;5.80;99.90;;;;;;5097343;28;20269;-66
2023/04/20 00:43:58;;;;;;;6.32;4.40;;;5.80;99.90;;;;;;5097325;28;20200;-66
2023/04/20 00:46:25;;;;;;;8.57;4.03;;;5.80;99.90;;;;;;5097604;28;20202;-65
2023/04/20 00:48:54;;;;;;;4.55;3.83;;;5.80;99.90;;;;;;5097900;28;20625;-65
2023/04/20 00:51:22;;;;;;;10.35;4.07;;;5.80;99.90;;;;;;5097696;28;20686;-66
2023/04/20 00:53:48;;;;;;;5.43;4.43;;;5.80;99.90;;;;;;5097703;28;20681;-66
2023/04/20 00:56:18;;;;;;;7.15;3.50;;;5.80;99.90;;;;;;5098209;28;20357;-66
2023/04/20 00:58:45;;;;;;;9.98;4.15;;;5.80;99.90;;;;;;5097780;28;20197;-65
2023/04/20 01:01:16;;;;;;;7.15;4.55;;;5.80;99.90;;;;;;5097954;28;20204;-66
2023/04/20 01:03:43;;;;;;;6.15;4.00;;;5.80;99.90;;;;;;5098329;28;20275;-66
2023/04/20 01:06:11;;;;;;;6.03;4.78;;;5.80;99.90;;;;;;5098756;28;20200;-66
2023/04/20 01:08:46;;;;;;;9.10;4.40;;;5.80;99.90;;;;;;5099150;28;20213;-66
2023/04/20 01:11:14;;;;;;;7.32;4.55;;;5.80;99.90;;;;;;5101583;28;20566;-65
2023/04/20 01:13:43;;;;;;;7.70;4.25;;;5.80;99.90;;;;;;5099942;28;20670;-65
2023/04/20 01:16:10;;;;;;;7.65;4.45;;;5.80;99.90;;;;;;5103075;28;20227;-65
2023/04/20 01:18:45;;;;;;;7.25;4.65;;;5.70;99.90;;;;;;5102632;28;20204;-66
2023/04/20 01:21:12;;;;;;;8.25;5.18;;;5.70;99.90;;;;;;5097097;28;20263;-66
2023/04/20 01:23:40;;;;;;;5.45;4.43;;;5.70;99.90;;;;;;5096868;28;20616;-66
2023/04/20 01:26:08;;;;;;;5.95;4.68;;;5.70;99.90;;;;;;5096992;28;20221;-66
2023/04/20 01:28:35;;;;;;;6.30;4.72;;;5.70;99.90;;;;;;5096650;28;20660;-66
2023/04/20 01:31:03;;;;;;;5.97;5.03;;;5.70;99.90;;;;;;5098023;28;20211;-66
2023/04/20 01:33:30;;;;;;;10.38;4.57;;;5.70;99.90;;;;;;5098613;28;20567;-65
2023/04/20 01:35:57;;;;;;;7.20;4.32;;;5.70;99.90;;;;;;5098717;28;20224;-65
2023/04/20 01:38:25;;;;;;;5.90;4.55;;;5.70;99.90;;;;;;5099151;28;20307;-66
2023/04/20 01:40:54;;;;;;;10.38;4.50;;;5.70;99.90;;;;;;5099669;28;20200;-66
2023/04/20 01:43:22;;;;;;;6.22;4.22;;;5.70;99.90;;;;;;5099116;28;20207;-65
2023/04/20 01:45:49;;;;;;;7.82;5.60;;;5.80;99.90;;;;;;5098550;28;20227;-65
2023/04/20 01:48:16;;;;;;;7.78;4.05;;;5.80;99.90;;;;;;5098595;28;20203;-66
2023/04/20 01:50:43;;;;;;;7.65;4.78;;;5.80;99.90;;;;;;5096676;28;20514;-65
2023/04/20 01:53:09;;;;;;;12.07;4.78;;;5.80;99.90;;;;;;5096637;28;20209;-64
2023/04/20 01:55:36;;;;;;;11.20;4.65;;;5.80;99.90;;;;;;5096338;28;20602;-66
2023/04/20 01:58:04;;;;;;;7.75;5.03;;;5.80;99.90;;;;;;5096635;28;20224;-65
2023/04/20 02:00:31;;;;;;;7.80;5.00;;;5.80;99.90;;;;;;5096338;28;20557;-64
2023/04/20 02:02:58;;;;;;;4.80;4.35;;;5.80;99.90;;;;;;5096833;28;20250;-66
2023/04/20 02:05:25;;;;;;;11.75;4.78;;;5.70;99.90;;;;;;5096605;28;20220;-65
2023/04/20 02:07:52;;;;;;;7.47;4.20;;;5.70;99.90;;;;;;5096165;28;20671;-65
2023/04/20 02:10:19;;;;;;;4.78;4.00;;;5.70;99.90;;;;;;5095765;28;20289;-66
2023/04/20 02:12:46;;;;;;;12.57;4.45;;;5.80;99.90;;;;;;5095750;28;20287;-65
2023/04/20 02:15:14;;;;;;;6.30;4.78;;;5.80;99.90;;;;;;5095980;28;20220;-65
2023/04/20 02:17:42;;;;;;;7.38;5.10;;;5.80;99.90;;;;;;5096151;28;20220;-65
2023/04/20 02:20:11;;;;;;;7.53;4.65;;;5.80;99.90;;;;;;5096315;28;20204;-65
2023/04/20 02:22:38;;;;;;;4.70;4.03;;;5.80;99.90;;;;;;5095828;28;20200;-65
2023/04/20 02:25:06;;;;;;;6.22;3.97;;;5.70;99.90;;;;;;5095820;28;20224;-65
2023/04/20 02:27:33;;;;;;;5.53;4.45;;;5.80;99.90;;;;;;5095227;28;20200;-65
2023/04/20 02:30:00;;;;;;;10.23;5.30;;;5.70;99.90;;;;;;5095341;28;20196;-65
2023/04/20 02:32:28;;;;;;;7.78;4.25;;;5.70;99.90;;;;;;5095325;28;20578;-64
2023/04/20 02:34:55;;;;;;;9.32;4.50;;;5.70;99.90;;;;;;5094964;28;20749;-65
2023/04/20 02:37:22;;;;;;;11.27;7.22;;;5.70;99.90;;;;;;5096051;28;20226;-64
2023/04/20 02:39:49;;;;;;;7.72;5.10;;;5.70;99.90;;;;;;5095333;28;20224;-65
2023/04/20 02:42:15;;;;;;;7.25;6.50;;;5.80;99.90;;;;;;5095146;28;20210;-66
2023/04/20 02:44:42;;;;;;;9.75;5.32;;;5.80;99.90;;;;;;5094803;28;20746;-64
2023/04/20 02:47:09;;;;;;;12.13;5.85;;;5.70;99.90;;;;;;5094904;28;20204;-64
2023/04/20 02:49:37;;;;;;;7.75;5.78;;;5.70;99.90;;;;;;5094390;28;20206;-65
2023/04/20 02:52:05;;;;;;;6.78;5.00;;;5.70;99.90;;;;;;5094369;28;20287;-66
2023/04/20 02:54:31;;;;;;;8.65;5.43;;;5.70;99.90;;;;;;5094764;28;20226;-65
2023/04/20 02:56:58;;;;;;;8.20;5.40;;;5.70;99.90;;;;;;5094999;28;20220;-64
2023/04/20 02:59:25;;;;;;;8.43;5.43;;;5.70;99.90;;;;;;5094826;28;20616;-65
2023/04/20 03:01:52;;;;;;;12.27;6.43;;;5.70;99.90;;;;;;5094585;28;20200;-64
2023/04/20 03:04:19;;;;;;;9.68;6.22;;;5.70;99.90;;;;;;5094144;28;20231;-64
2023/04/20 03:06:50;;;;;;;11.30;6.85;;;5.70;99.90;;;;;;5094315;28;20201;-65
2023/04/20 03:09:17;;;;;;;9.00;6.28;;;5.70;99.90;;;;;;5094269;28;20261;-65
2023/04/20 03:11:44;;;;;;;7.95;5.30;;;5.70;99.90;;;;;;5093828;28;20300;-65
2023/04/20 03:14:11;;;;;;;16.65;7.10;;;5.70;99.90;;;;;;5093778;28;20596;-65
2023/04/20 03:16:38;;;;;;;10.68;5.45;;;5.70;99.90;;;;;;5094049;28;20200;-65
2023/04/20 03:19:05;;;;;;;11.85;5.93;;;5.70;99.90;;;;;;5094150;28;20203;-65
2023/04/20 03:21:31;;;;;;;11.15;6.40;;;5.70;99.90;;;;;;5094135;28;20322;-65
2023/04/20 03:24:00;;;;;;;10.55;5.20;;;5.70;99.90;;;;;;5093967;28;20204;-65
2023/04/20 03:26:27;;;;;;;7.97;5.07;;;5.70;99.90;;;;;;5093953;28;20197;-65
2023/04/20 03:28:53;;;;;;;7.88;5.88;;;5.70;99.90;;;;;;5093832;28;20196;-66
2023/04/20 03:31:20;;;;;;;8.57;4.82;;;5.70;99.90;;;;;;5093781;28;20235;-65
2023/04/20 03:33:47;;;;;;;9.38;6.20;;;5.70;99.90;;;;;;5093959;28;20291;-65
2023/04/20 03:36:14;;;;;;;6.60;5.55;;;5.70;99.90;;;;;;5093840;28;20204;-65
2023/04/20 03:38:41;;;;;;;8.48;5.60;;;5.70;99.90;;;;;;5093443;28;20220;-66
2023/04/20 03:41:09;;;;;;;10.15;7.57;;;5.80;99.90;;;;;;5093695;28;20207;-66
2023/04/20 03:43:36;;;;;;;10.75;5.03;;;5.80;99.90;;;;;;5093661;28;20200;-66
2023/04/20 03:46:02;;;;;;;8.40;5.45;;;5.70;99.90;;;;;;5093251;28;20228;-66
2023/04/20 03:48:29;;;;;;;10.00;5.75;;;5.80;99.90;;;;;;5093533;28;20200;-65
2023/04/20 03:50:56;;;;;;;9.90;5.70;;;5.70;99.90;;;;;;5093405;28;20207;-64
2023/04/20 03:53:23;;;;;;;11.43;6.10;;;5.80;99.90;;;;;;5093371;28;20215;-65
2023/04/20 03:55:50;;;;;;;8.23;5.63;;;5.80;99.90;;;;;;5092995;28;20594;-66
2023/04/20 03:58:18;;;;;;;10.40;6.10;;;5.80;99.90;;;;;;5093432;28;20216;-66
2023/04/20 04:00:45;;;;;;;9.15;5.60;;;5.80;99.90;;;;;;5093092;28;20207;-64
2023/04/20 04:03:11;;;;;;;9.10;5.68;;;5.80;99.90;;;;;;5092848;28;20684;-65
2023/04/20 04:05:38;;;;;;;15.43;8.45;;;5.80;99.90;;;;;;5093619;28;20589;-65
2023/04/20 04:11:35;;;;;;;8.13;6.00;;;5.80;99.90;;;;;;5111594;27;20552;-66
2023/04/20 04:14:03;;;;;;;8.38;5.82;;;5.80;99.90;;;;;;5111157;28;20196;-67
2023/04/20 04:16:30;;;;;;;7.38;5.75;;;5.80;99.90;;;;;;5111518;28;20264;-66
2023/04/20 04:18:57;;;;;;;13.75;6.60;;;5.80;99.90;;;;;;5111209;28;20199;-66
2023/04/20 04:21:24;;;;;;;9.48;6.70;;;5.80;99.90;;;;;;5111265;28;20199;-66
2023/04/20 04:23:51;;;;;;;8.77;6.07;;;5.80;99.90;;;;;;5110912;28;20256;-66
2023/04/20 04:26:20;;;;;;;9.90;7.10;;;5.80;99.90;;;;;;5111073;28;20205;-65
2023/04/20 04:28:48;;;;;;;9.57;6.07;;;5.80;99.90;;;;;;5110861;28;20283;-68
2023/04/20 04:31:16;;;;;;;9.02;6.00;;;5.80;99.90;;;;;;5110519;28;20219;-66
2023/04/20 04:33:43;;;;;;;12.00;7.25;;;5.80;99.90;;;;;;5111817;28;20203;-66
2023/04/20 04:36:10;;;;;;;10.52;7.57;;;5.80;99.90;;;;;;5111543;28;20204;-67
2023/04/20 04:38:37;;;;;;;10.55;6.65;;;5.80;99.90;;;;;;5093567;22;20605;-58
2023/04/20 04:41:04;;;;;;;9.70;6.80;;;5.80;99.90;;;;;;5051105;28;20610;-61
2023/04/20 04:43:32;;;;;;;13.15;6.57;;;5.80;99.90;;;;;;5050483;28;20573;-60
2023/04/20 04:46:06;;;;;;;7.85;6.75;;;5.80;99.90;;;;;;5051306;28;20202;-59
2023/04/20 04:48:34;;;;;;;8.63;6.38;;;5.80;99.90;;;;;;5050701;28;20225;-61
2023/04/20 04:51:01;;;;;;;9.18;6.10;;;5.90;99.90;;;;;;5050638;28;20222;-60
2023/04/20 04:53:27;;;;;;;9.80;6.60;;;5.90;99.90;;;;;;5051113;28;20198;-60
2023/04/20 04:55:54;;;;;;;11.25;7.25;;;5.90;99.90;;;;;;5051757;28;20293;-60
2023/04/20 04:58:21;;;;;;;7.05;6.30;;;5.90;99.90;;;;;;5051827;28;20312;-60
2023/04/20 05:00:48;;;;;;;9.93;7.63;;;5.90;99.90;;;;;;5051187;28;20205;-60
2023/04/20 05:03:16;;;;;;;11.23;6.50;;;5.90;99.90;;;;;;5052156;28;20202;-60
2023/04/20 05:05:43;;;;;;;10.00;7.38;;;5.90;99.90;;;;;;5050933;28;20204;-60
2023/04/20 05:08:11;;;;;;;9.45;7.43;;;5.90;99.90;;;;;;5051610;28;20672;-60
2023/04/20 05:10:38;;;;;;;11.02;6.55;;;5.90;99.90;;;;;;5054169;28;20285;-60
2023/04/20 05:13:04;;;;;;;11.40;7.00;;;6.00;99.90;;;;;;5058411;28;20206;-60
2023/04/20 05:15:31;;;;;;;7.70;5.53;;;5.90;99.90;;;;;;5064101;28;20206;-59
2023/04/20 05:17:58;;;;;;;8.70;6.55;;;6.00;99.90;;;;;;5064131;28;20678;-60
2023/04/20 05:20:26;;;;;;;12.98;6.85;;;6.00;99.90;;;;;;5062336;28;20293;-60
2023/04/20 05:22:53;;;;;;;11.05;8.15;;;6.00;99.90;;;;;;5041896;28;20206;-60
2023/04/20 05:25:20;;;;;;;10.20;6.90;;;6.00;99.90;;;;;;5038571;28;20205;-59
2023/04/20 05:27:47;;;;;;;11.13;7.25;;;6.00;99.90;;;;;;5038350;28;20236;-60
2023/04/20 05:30:14;;;;;;;10.73;6.50;;;6.00;99.90;;;;;;5039202;28;20218;-60
2023/04/20 05:32:41;;;;;;;11.77;7.85;;;6.10;99.90;;;;;;5039307;28;20265;-60
2023/04/20 05:35:08;;;;;;;13.02;7.50;;;6.10;99.90;;;;;;5039144;28;20209;-59
2023/04/20 05:37:36;;;;;;;8.45;6.75;;;6.10;99.90;;;;;;5038582;28;20379;-60
2023/04/20 05:40:04;;;;;;;13.00;7.20;;;6.10;99.90;;;;;;5039688;28;20209;-61
2023/04/20 05:42:31;;;;;;;10.82;6.88;;;6.10;99.90;;;;;;5039795;28;20289;-59
2023/04/20 05:44:57;;;;;;;11.07;7.32;;;6.10;99.90;;;;;;5040078;28;20205;-61
2023/04/20 05:47:26;;;;;;;9.07;6.60;;;6.20;99.90;;;;;;5039891;28;20258;-61
2023/04/20 05:49:53;;;;;;;11.52;7.95;;;6.20;99.90;;;;;;5039591;28;20289;-58
2023/04/20 05:52:19;;;;;;;11.38;6.97;;;6.20;99.90;;;;;;5037527;28;20525;-62
2023/04/20 05:54:48;;;;;;;10.57;6.47;;;6.20;99.90;;;;;;5037632;28;20696;-60
2023/04/20 05:57:15;;;;;;;7.90;5.65;;;6.30;99.90;;;;;;5039131;28;20272;-59
2023/04/20 05:59:42;;;;;;;9.07;6.35;;;6.30;99.90;;;;;;5038744;28;20210;-61
2023/04/20 06:02:09;;;;;;;10.93;6.80;;;6.40;99.90;;;;;;5040235;28;20209;-61
2023/04/20 06:04:36;;;;;;;11.15;7.93;;;6.50;99.90;;;;;;5044140;28;20206;-60
2023/04/20 06:07:03;;;;;;;9.75;6.70;;;6.50;99.90;;;;;;5046905;28;20202;-60
2023/04/20 06:09:29;;;;;;;8.10;6.25;;;6.60;99.90;;;;;;5049521;28;20198;-60
2023/04/20 06:11:59;;;;;;;10.90;6.40;;;6.70;99.90;;;;;;5047704;28;20233;-61
2023/04/20 06:14:26;;;;;;;8.30;6.45;;;6.70;99.90;;;;;;5047642;28;20225;-60
2023/04/20 06:16:52;;;;;;;6.72;5.93;;;6.80;99.90;;;;;;5050061;28;20210;-60
2023/04/20 06:19:19;;;;;;;11.63;6.63;;;6.80;99.90;;;;;;5050070;28;20233;-60
2023/04/20 06:21:46;;;;;;;10.05;7.30;;;6.90;99.90;;;;;;5047740;28;20198;-60
2023/04/20 06:24:13;;;;;;;10.35;7.22;;;7.00;99.90;;;;;;5047778;28;20270;-59
2023/04/20 06:26:39;;;;;;;7.95;6.32;;;7.20;99.90;;;;;;5047584;28;20216;-60
2023/04/20 06:29:08;;;;;;;7.60;6.25;;;7.30;99.90;;;;;;5040934;28;20662;-61
2023/04/20 06:31:34;;;;;;;8.73;6.38;;;7.30;99.90;;;;;;5043150;28;20228;-60
2023/04/20 06:34:01;;;;;;;10.00;6.80;;;7.40;99.90;;;;;;5044139;28;20301;-60
2023/04/20 06:36:28;;;;;;;10.40;7.75;;;7.40;99.90;;;;;;5046364;28;20206;-60
2023/04/20 06:38:55;;;;;;;9.32;6.65;;;7.40;99.90;;;;;;5046954;28;20316;-59
2023/04/20 06:41:22;;;;;;;7.85;6.50;;;7.50;99.90;;;;;;5045849;28;20222;-61
2023/04/20 06:43:50;;;;;;;11.00;6.75;;;7.50;99.90;;;;;;5044261;28;20238;-61
2023/04/20 06:46:18;;;;;;;11.18;7.88;;;7.60;99.90;;;;;;5037519;28;20256;-61
2023/04/20 06:48:45;;;;;;;10.05;7.10;;;7.50;99.90;;;;;;5038735;28;20313;-61
2023/04/20 06:51:12;;;;;;;9.57;6.93;;;7.40;99.90;;;;;;5037774;28;20226;-60
2023/04/20 06:53:39;;;;;;;8.85;7.05;;;7.40;99.90;;;;;;5039749;28;20202;-61
2023/04/20 06:56:07;;;;;;;9.40;7.45;;;7.30;99.90;;;;;;5041007;28;20214;-63
2023/04/20 06:58:33;;;;;;;12.27;7.80;;;7.30;99.90;;;;;;5042376;28;20229;-62
2023/04/20 07:01:00;;;;;;;12.05;7.68;;;7.40;99.90;;;;;;5041855;28;20199;-61
2023/04/20 07:03:28;;;;;;;9.57;8.07;;;7.50;99.90;;;;;;5043016;28;20672;-61
2023/04/20 07:05:55;;;;;;;12.77;7.68;;;7.60;99.90;;;;;;5045938;28;20226;-60
2023/04/20 07:08:22;;;;;;;11.60;6.75;;;7.80;99.90;;;;;;5042213;28;20294;-60
2023/04/20 07:10:49;;;;;;;8.82;7.22;;;7.90;99.90;;;;;;5039671;28;20218;-58
2023/04/20 07:13:16;;;;;;;11.20;8.40;;;8.10;99.90;;;;;;5042230;28;20644;-62
2023/04/20 07:15:44;;;;;;;9.05;7.07;;;8.20;99.90;;;;;;5039659;28;20208;-62
2023/04/20 07:18:11;;;;;;;7.35;6.65;;;8.20;99.90;;;;;;5037448;28;20226;-61
2023/04/20 07:20:39;;;;;;;9.27;8.00;;;8.20;99.90;;;;;;5038368;28;20573;-61
2023/04/20 07:23:06;;;;;;;7.70;6.50;;;8.00;99.90;;;;;;5045560;28;20208;-60
2023/04/20 07:25:33;;;;;;;9.07;7.30;;;8.00;99.90;;;;;;5046933;28;20202;-61
2023/04/20 07:27:59;;;;;;;10.52;8.10;;;7.90;99.90;;;;;;5045748;28;20289;-60
2023/04/20 07:30:26;;;;;;;10.70;7.10;;;7.80;99.90;;;;;;5048879;28;20206;-60
2023/04/20 07:32:53;;;;;;;9.27;6.82;;;7.80;99.90;;;;;;5049724;28;20202;-61
2023/04/20 07:35:20;;;;;;;11.52;8.00;;;7.70;99.90;;;;;;5044880;28;20202;-61
2023/04/20 07:37:48;;;;;;;9.10;7.00;;;7.80;99.90;;;;;;5044493;28;20237;-61
2023/04/20 07:40:15;;;;;;;10.30;7.65;;;7.90;99.90;;;;;;5045084;28;20213;-62
2023/04/20 07:42:42;;;;;;;9.95;7.60;;;8.00;99.90;;;;;;5049483;28;20208;-61
2023/04/20 07:45:11;;;;;;;10.85;7.82;;;8.20;99.90;;;;;;5046314;28;20215;-60
2023/04/20 07:47:37;;;;;;;11.95;7.45;;;8.30;99.90;;;;;;5046409;28;20222;-61
2023/04/20 07:50:06;;;;;;;8.23;6.35;;;8.40;99.90;;;;;;5046262;28;20274;-61
2023/04/20 07:52:33;;;;;;;11.80;7.60;;;8.60;99.90;;;;;;5048839;28;20218;-60
2023/04/20 07:55:01;;;;;;;10.48;7.25;;;8.70;99.90;;;;;;5048273;28;20199;-61
2023/04/20 07:57:29;;;;;;;10.60;7.57;;;8.90;99.90;;;;;;5041767;28;20298;-61
2023/04/20 07:59:55;;;;;;;8.23;6.72;;;9.10;99.90;;;;;;5037392;28;20204;-62
2023/04/20 08:02:23;;;;;;;9.10;7.43;;;9.20;99.90;;;;;;5037189;28;20218;-61
2023/04/20 08:04:50;;;;;;;10.50;7.13;;;9.30;99.90;;;;;;5037425;28;20544;-61
2023/04/20 08:07:17;;;;;;;8.50;6.68;;;9.30;99.90;;;;;;5037795;28;20202;-60
2023/04/20 08:09:44;;;;;;;8.57;6.30;;;9.40;99.90;;;;;;5037867;28;20207;-60
2023/04/20 08:12:12;;;;;;;9.37;6.70;;;9.40;99.90;;;;;;5037988;28;20214;-61
2023/04/20 08:14:40;;;;;;;8.95;6.90;;;9.40;99.90;;;;;;5042461;28;20461;-61
2023/04/20 08:17:07;;;;;;;6.47;5.75;;;9.30;99.90;;;;;;5045247;28;20241;-63
2023/04/20 08:19:33;;;;;;;9.73;6.43;;;9.50;99.80;;;;;;5035928;28;20252;-61
2023/04/20 08:22:01;;;;;;;6.10;5.37;;;9.70;98.60;;;;;;5037002;28;20476;-61
2023/04/20 08:24:28;;;;;;;10.53;6.57;;;9.90;96.60;;;;;;5036837;28;20845;-62
2023/04/20 08:26:55;;;;;;;7.00;6.20;;;10.10;94.80;;;;;;5038222;28;20464;-61
2023/04/20 08:29:23;;;;;;;8.37;6.80;;;10.20;93.50;;;;;;5039969;28;20465;-62
2023/04/20 08:31:50;;;;;;;7.37;5.80;;;10.30;92.30;;;;;;5038945;28;21016;-59
2023/04/20 08:34:17;;;;;;;7.43;5.93;;;10.40;91.10;;;;;;5043127;28;20528;-61
2023/04/20 08:36:45;;;;;;;6.47;5.87;;;10.40;89.20;;;;;;5040482;28;20441;-61
2023/04/20 08:39:13;;;;;;;7.50;6.77;;;10.40;87.80;;;;;;5041175;28;20511;-63
2023/04/20 08:41:40;;;;;;;9.33;6.27;;;10.50;88.10;;;;;;5041660;28;20445;-60
2023/04/20 08:44:08;;;;;;;10.50;7.50;;;10.60;86.20;;;;;;5045500;28;20695;-63
2023/04/20 08:46:37;;;;;;;7.97;6.10;;;10.60;84.50;;;;;;5044958;28;20516;-62
2023/04/20 08:49:04;;;;;;;7.03;6.07;;;10.60;83.30;;;;;;5044750;28;20464;-62
2023/04/20 08:51:31;;;;;;;6.80;6.10;;;10.50;82.20;;;;;;5038539;28;21025;-61
2023/04/20 08:54:04;;;;;;;6.57;5.83;;;10.30;82.10;;;;;;5041185;28;20464;-61
2023/04/20 08:56:36;;;;;;;6.33;5.73;;;10.20;82.90;;;;;;5037893;28;21034;-62
2023/04/20 08:59:04;;;;;;;7.37;6.07;;;10.30;82.60;;;;;;5041154;28;20527;-60
2023/04/20 09:01:31;;;;;;;7.80;5.80;;;10.40;82.30;;;;;;5041494;28;20487;-60
2023/04/20 09:04:00;;;;;;;8.90;5.57;;;10.60;81.30;;;;;;5042375;28;20440;-63
2023/04/20 09:06:27;;;;;;;10.33;6.23;;;10.80;79.50;;;;;;5042618;28;20456;-62
2023/04/20 09:08:55;;;;;;;8.10;6.10;;;10.80;77.50;;;;;;5041798;28;20522;-61
2023/04/20 09:11:23;;;;;;;6.43;5.37;;;11.00;76.10;;;;;;5041320;28;20563;-62
2023/04/20 09:14:01;;;;;;;6.30;5.60;;;11.00;74.00;;;;;;5042060;28;20449;-62
2023/04/20 09:16:28;;;;;;;8.10;5.93;;;11.00;73.20;;;;;;5041667;28;20426;-60
2023/04/20 09:18:55;;;;;;;10.20;6.57;;;11.10;72.40;;;;;;5040063;28;20852;-61
2023/04/20 09:21:25;;;;;;;7.27;6.17;;;11.20;71.50;;;;;;5039443;28;20441;-62
2023/04/20 09:24:00;;;;;;;7.57;5.90;;;11.20;70.00;;;;;;5039777;28;20441;-60
2023/04/20 09:26:27;;;;;;;9.50;6.17;;;11.00;69.20;;;;;;5040179;28;20449;-61
2023/04/20 09:28:54;;;;;;;6.50;5.53;;;11.00;69.10;;;;;;5043946;28;20465;-61
2023/04/20 09:31:22;;;;;;;7.40;5.60;;;11.00;69.20;;;;;;5039031;28;20846;-62
2023/04/20 09:33:59;;;;;;;8.93;5.73;;;11.10;68.80;;;;;;5038352;28;20457;-61
2023/04/20 09:36:37;;;;;;;7.53;4.70;;;11.40;67.80;;;;;;5037683;28;20459;-60
2023/04/20 09:39:08;;;;;;;6.03;5.17;;;11.40;65.30;;;;;;5038061;28;20484;-61
2023/04/20 09:41:36;;;;;;;6.77;6.10;;;11.40;64.50;;;;;;5038099;28;20422;-61
2023/04/20 09:44:03;;;;;;;7.00;5.90;;;11.20;63.30;;;;;;5037462;28;20453;-61
2023/04/20 09:46:31;;;;;;;5.87;5.30;;;11.00;63.50;;;;;;5041324;28;20445;-62
2023/04/20 09:48:59;;;;;;;12.83;6.23;;;11.00;63.70;;;;;;5041794;28;20468;-61
2023/04/20 09:51:27;;;;;;;6.77;5.80;;;11.00;63.70;;;;;;5040069;28;20485;-60
2023/04/20 09:53:57;;;;;;;5.73;5.13;;;11.10;63.60;;;;;;5040325;28;20445;-59
2023/04/20 09:56:24;;;;;;;6.13;4.50;;;11.20;62.70;;;;;;5040715;28;20452;-61
2023/04/20 09:58:51;;;;;;;5.50;5.00;;;11.40;62.10;;;;;;5041338;28;20522;-62
2023/04/20 10:01:19;;;;;;;6.47;5.80;;;11.40;60.60;;;;;;5041083;28;20539;-61
2023/04/20 10:03:46;;;;;;;8.60;5.00;;;11.50;60.00;;;;;;5043693;28;20453;-62
2023/04/20 10:06:20;;;;;;;5.93;5.33;;;11.60;59.60;;;;;;5047810;28;20457;-61
2023/04/20 10:08:47;;;;;;;7.53;5.70;;;11.70;59.20;;;;;;5040061;28;20471;-61
2023/04/20 10:11:29;;;;;;;6.70;6.10;;;11.70;58.90;;;;;;5041998;28;20485;-62
2023/04/20 10:13:56;;;;;;;5.80;5.30;;;11.70;58.80;;;;;;5047105;28;20452;-62
2023/04/20 10:16:23;;;;;;;7.03;5.70;;;11.70;58.60;;;;;;5048885;28;20437;-62
2023/04/20 10:18:58;;;;;;;5.70;5.10;;;11.80;58.00;;;;;;5047355;28;20469;-62
2023/04/20 10:21:25;;;;;;;5.80;5.20;;;11.80;57.30;;;;;;5047543;28;20452;-62
2023/04/20 10:23:52;;;;;;;7.53;5.57;;;11.70;57.20;;;;;;5046023;28;20809;-63
2023/04/20 10:26:20;;;;;;;5.90;5.40;;;11.70;57.30;;;;;;5045008;28;20449;-63
2023/04/20 10:28:48;;;;;;;5.80;5.30;;;11.70;57.20;;;;;;5046601;28;20878;-62
2023/04/20 10:31:15;;;;;;;8.93;6.20;;;11.70;57.20;;;;;;5042223;28;20487;-62
2023/04/20 10:33:53;;;;;;;6.70;5.87;;;11.70;57.20;;;;;;5039631;28;20453;-59
2023/04/20 10:36:24;;;;;;;7.20;5.93;;;11.80;57.10;;;;;;5040656;28;20429;-61
2023/04/20 10:38:51;;;;;;;8.40;5.63;;;11.90;56.60;;;;;;5059717;22;20844;-64
2023/04/20 10:41:18;;;;;;;5.77;5.13;;;12.00;56.00;;;;;;5034466;28;20437;-66
2023/04/20 10:43:45;;;;;;;5.40;4.90;;;12.10;55.40;;;;;;5034528;28;20448;-66
2023/04/20 10:46:18;;;;;;;6.23;5.63;;;12.20;55.10;;;;;;5035019;28;20528;-66
2023/04/20 10:48:55;;;;;;;6.57;5.70;;;12.20;54.30;;;;;;5034547;28;20461;-67
2023/04/20 10:51:22;;;;;;;6.73;5.80;;;12.20;54.30;;;;;;5035627;28;20441;-66
2023/04/20 10:53:59;;;;;;;6.53;5.80;;;12.20;54.20;;;;;;5034990;28;20822;-67
2023/04/20 10:56:26;;;;;;;5.63;4.80;;;12.40;54.30;;;;;;5034907;28;21000;-66
2023/04/20 10:58:54;;;;;;;6.03;5.10;;;12.50;53.90;;;;;;5034156;28;20464;-67
2023/04/20 11:01:22;;;;;;;6.87;5.73;;;12.50;53.70;;;;;;5034446;28;20872;-66
2023/04/20 11:03:52;;;;;;;7.43;5.97;;;12.60;54.00;;;;;;5034903;28;20539;-66
2023/04/20 11:06:19;;;;;;;13.03;7.00;;;12.70;53.90;;;;;;5034483;28;20820;-66
2023/04/20 11:08:46;;;;;;;11.20;6.37;;;12.80;53.80;;;;;;5034688;28;21005;-66
2023/04/20 11:11:20;;;;;;;5.83;5.23;;;12.80;53.30;;;;;;5034922;28;20555;-66
2023/04/20 11:13:47;;;;;;;6.20;5.60;;;13.00;53.40;;;;;;5034338;28;20503;-66
2023/04/20 11:16:15;;;;;;;6.63;5.97;;;13.10;53.20;;;;;;5034764;28;20459;-66
2023/04/20 11:18:51;;;;;;;7.40;5.70;;;13.10;52.80;;;;;;5033932;28;20453;-67
2023/04/20 11:21:18;;;;;;;6.37;5.77;;;13.20;52.50;;;;;;5036331;28;20449;-65
2023/04/20 11:23:46;;;;;;;6.50;5.90;;;13.20;52.30;;;;;;5034253;28;20887;-66
2023/04/20 11:26:13;;;;;;;6.00;5.40;;;13.30;52.20;;;;;;5035092;28;20453;-66
2023/04/20 11:28:51;;;;;;;5.57;5.07;;;13.40;51.90;;;;;;5034777;28;20855;-67
2023/04/20 11:31:18;;;;;;;5.87;5.27;;;13.30;51.50;;;;;;5035410;28;20430;-66
2023/04/20 11:33:45;;;;;;;6.47;5.87;;;13.10;51.60;;;;;;5035308;28;20488;-66
2023/04/20 11:36:20;;;;;;;6.60;5.90;;;12.90;51.80;;;;;;5035085;28;20445;-65
2023/04/20 11:38:47;;;;;;;8.10;5.60;;;12.90;52.10;;;;;;5034428;28;20475;-66
2023/04/20 11:41:14;;;;;;;6.57;5.87;;;12.80;52.20;;;;;;5035609;28;20475;-65
2023/04/20 11:43:42;;;;;;;6.50;5.77;;;12.90;52.50;;;;;;5035293;28;20445;-66
2023/04/20 11:46:19;;;;;;;6.07;5.47;;;12.90;52.50;;;;;;5035012;28;20502;-66
2023/04/20 11:48:47;;;;;;;6.67;5.90;;;12.90;52.50;;;;;;5034567;28;20473;-66
2023/04/20 11:51:15;;;;;;;6.60;5.33;;;12.80;52.50;;;;;;5035177;28;20496;-67
2023/04/20 11:53:43;;;;;;;5.97;5.17;;;12.70;52.50;;;;;;5034836;28;20568;-67
2023/04/20 11:56:10;;;;;;;6.40;5.80;;;12.60;52.40;;;;;;5034656;28;20552;-66
2023/04/20 11:58:37;;;;;;;6.10;5.50;;;12.40;52.20;;;;;;5033948;28;20492;-67
2023/04/20 12:01:05;;;;;;;6.17;5.67;;;12.40;52.50;;;;;;5034138;28;20555;-66
2023/04/20 12:03:32;;;;;;;5.27;4.77;;;12.40;52.50;;;;;;5034997;28;20865;-65
2023/04/20 12:05:59;;;;;;;5.70;4.97;;;12.40;52.20;;;;;;5035354;28;20448;-65
2023/04/20 12:08:26;;;;;;;5.20;4.70;;;12.40;52.40;;;;;;5034784;28;20508;-66
2023/04/20 12:10:54;;;;;;;5.47;4.97;;;12.50;52.20;;;;;;5033125;28;20552;-65
2023/04/20 12:13:21;;;;;;;5.93;5.33;;;12.70;52.10;;;;;;5034088;28;20488;-68
2023/04/20 12:15:48;;;;;;;6.10;5.50;;;13.00;51.70;;;;;;5033494;28;20942;-68
2023/04/20 12:18:15;;;;;;;5.77;5.17;;;13.30;51.60;;;;;;5033659;28;20469;-67
2023/04/20 12:20:44;;;;;;;7.37;6.67;;;13.50;51.00;;;;;;5034440;28;20444;-68
2023/04/20 12:23:10;;;;;;;6.80;6.20;;;13.40;50.50;;;;;;5034272;28;20437;-68
2023/04/20 12:25:37;;;;;;;7.43;6.63;;;13.20;50.70;;;;;;5033980;28;20818;-67
2023/04/20 12:28:06;;;;;;;6.30;5.70;;;13.10;51.10;;;;;;5033729;28;21048;-67
2023/04/20 12:30:34;;;;;;;5.73;5.23;;;13.20;51.10;;;;;;5033283;28;20818;-67
2023/04/20 12:33:02;;;;;;;8.63;5.33;;;13.20;50.60;;;;;;5037201;28;21059;-66
2023/04/20 12:35:29;;;;;;;6.53;5.70;;;13.20;51.10;;;;;;5038532;28;20457;-66
2023/04/20 12:37:56;;;;;;;9.03;7.50;;;13.30;50.60;;;;;;5036850;28;20483;-67
2023/04/20 12:40:23;;;;;;;5.97;5.37;;;13.60;50.40;;;;;;5037083;28;20803;-67
2023/04/20 12:42:50;;;;;;;8.00;5.90;;;13.80;49.90;;;;;;5037580;28;20452;-67
2023/04/20 12:45:18;;;;;;;5.77;5.23;;;13.80;49.30;;;;;;5036880;28;20477;-68
2023/04/20 12:47:45;;;;;;;6.07;5.10;;;13.90;49.30;;;;;;5036682;28;20475;-66
2023/04/20 12:50:11;;;;;;;5.17;4.60;;;14.00;49.60;;;;;;5036806;28;20448;-67
2023/04/20 12:52:39;;;;;;;6.40;5.73;;;14.20;48.60;;;;;;5036800;28;20484;-67
2023/04/20 12:55:07;;;;;;;6.43;5.80;;;14.40;48.40;;;;;;5037150;28;20445;-67
2023/04/20 12:57:34;;;;;;;6.87;5.37;;;14.50;48.30;;;;;;5036515;28;20845;-66